createdAt,value
2018-08-12T00:00:28.384Z,12.40
2018-08-12T00:02:57.657Z,12.40
2018-08-12T00:05:25.940Z,12.30
2018-08-12T00:07:54.364Z,12.30
2018-08-12T00:10:23.531Z,12.30
2018-08-12T00:12:51.848Z,12.30
2018-08-12T00:15:21.195Z,12.30
2018-08-12T00:17:49.449Z,12.30
2018-08-12T00:20:19.363Z,12.20
2018-08-12T00:22:48.140Z,12.20
2018-08-12T00:25:18.088Z,12.20
2018-08-12T00:27:46.337Z,12.20
2018-08-12T00:30:16.424Z,12.20
2018-08-12T00:32:44.660Z,12.20
2018-08-12T00:35:14.408Z,12.10
2018-08-12T00:37:42.763Z,12.10
2018-08-12T00:40:12.299Z,12.10
2018-08-12T00:42:40.579Z,12.10
2018-08-12T00:45:11.465Z,12.10
2018-08-12T00:47:39.671Z,12.00
2018-08-12T00:50:09.128Z,11.90
2018-08-12T00:52:37.369Z,11.90
2018-08-12T00:55:06.686Z,11.90
2018-08-12T00:57:34.927Z,11.80
2018-08-12T01:00:03.209Z,11.90
2018-08-12T01:02:31.421Z,11.90
2018-08-12T01:04:59.638Z,11.80
2018-08-12T01:07:27.871Z,11.80
2018-08-12T01:09:56.119Z,11.80
2018-08-12T01:12:24.364Z,11.80
2018-08-12T01:14:52.556Z,11.70
2018-08-12T01:17:20.808Z,11.70
2018-08-12T01:19:48.987Z,11.70
2018-08-12T01:22:17.208Z,11.70
2018-08-12T01:24:45.398Z,11.60
2018-08-12T01:27:13.631Z,11.60
2018-08-12T01:29:41.917Z,11.60
2018-08-12T01:32:10.177Z,11.60
2018-08-12T01:34:38.412Z,11.50
2018-08-12T01:37:06.911Z,11.60
2018-08-12T01:39:35.227Z,11.60
2018-08-12T01:42:03.427Z,11.60
2018-08-12T01:44:31.641Z,11.50
2018-08-12T01:46:59.851Z,11.50
2018-08-12T01:49:28.050Z,11.50
2018-08-12T01:51:56.319Z,11.50
2018-08-12T01:54:24.707Z,11.50
2018-08-12T01:56:52.872Z,11.50
2018-08-12T01:59:21.064Z,11.40
2018-08-12T02:01:49.376Z,11.50
2018-08-12T02:04:17.628Z,11.50
2018-08-12T02:06:46.083Z,11.40
2018-08-12T02:09:14.300Z,11.40
2018-08-12T02:11:42.518Z,11.40
2018-08-12T02:14:10.715Z,11.40
2018-08-12T02:16:38.905Z,11.40
2018-08-12T02:19:07.147Z,11.40
2018-08-12T02:21:35.332Z,11.40
2018-08-12T02:24:03.543Z,11.40
2018-08-12T02:26:31.716Z,11.40
2018-08-12T02:28:59.888Z,11.40
2018-08-12T02:31:28.112Z,11.30
2018-08-12T02:33:56.297Z,11.40
2018-08-12T02:36:24.508Z,11.30
2018-08-12T02:38:52.784Z,11.30
2018-08-12T02:41:21.025Z,11.30
2018-08-12T02:43:49.220Z,11.30
2018-08-12T02:46:17.474Z,11.30
2018-08-12T02:48:45.668Z,11.30
2018-08-12T02:51:13.953Z,11.30
2018-08-12T02:53:42.214Z,11.20
2018-08-12T02:56:10.408Z,11.20
2018-08-12T02:58:38.652Z,11.10
2018-08-12T03:01:06.953Z,11.10
2018-08-12T03:03:35.194Z,11.20
2018-08-12T03:06:03.440Z,11.30
2018-08-12T03:08:31.663Z,11.30
2018-08-12T03:10:59.865Z,11.30
2018-08-12T03:13:28.125Z,11.30
2018-08-12T03:15:56.336Z,11.30
2018-08-12T03:18:24.532Z,11.20
2018-08-12T03:20:52.740Z,11.20
2018-08-12T03:23:20.940Z,11.20
2018-08-12T03:25:49.227Z,11.10
2018-08-12T03:28:17.511Z,11.10
2018-08-12T03:30:45.742Z,11.10
2018-08-12T03:33:13.947Z,11.10
2018-08-12T03:35:42.201Z,11.10
2018-08-12T03:38:10.579Z,11.10
2018-08-12T03:40:38.804Z,11.00
2018-08-12T03:43:06.988Z,11.00
2018-08-12T03:45:35.185Z,11.00
2018-08-12T03:48:03.419Z,11.00
2018-08-12T03:50:31.595Z,11.00
2018-08-12T03:52:59.783Z,11.00
2018-08-12T03:55:27.980Z,11.00
2018-08-12T03:57:56.255Z,11.00
2018-08-12T04:00:24.471Z,11.00
2018-08-12T04:02:52.656Z,11.00
2018-08-12T04:05:21.500Z,11.00
2018-08-12T04:07:49.799Z,11.00
2018-08-12T04:10:18.099Z,11.00
2018-08-12T04:12:46.319Z,11.00
2018-08-12T04:15:14.528Z,10.90
2018-08-12T04:17:42.769Z,10.90
2018-08-12T04:20:11.850Z,11.00
2018-08-12T04:22:40.056Z,11.00
2018-08-12T04:25:08.269Z,11.00
2018-08-12T04:27:36.533Z,10.90
2018-08-12T04:30:06.797Z,10.90
2018-08-12T04:32:34.991Z,11.00
2018-08-12T04:35:03.305Z,11.10
2018-08-12T04:37:31.540Z,11.10
2018-08-12T04:39:59.764Z,11.10
2018-08-12T04:42:28.032Z,11.10
2018-08-12T04:44:56.270Z,11.20
2018-08-12T04:47:24.481Z,11.20
2018-08-12T04:49:52.706Z,11.20
2018-08-12T04:52:20.932Z,11.20
2018-08-12T04:54:49.115Z,11.30
2018-08-12T04:57:17.366Z,11.40
2018-08-12T04:59:45.561Z,11.50
2018-08-12T05:02:13.791Z,11.60
2018-08-12T05:04:42.072Z,11.60
2018-08-12T05:07:10.270Z,11.70
2018-08-12T05:09:38.557Z,11.70
2018-08-12T05:12:06.765Z,11.70
2018-08-12T05:14:34.958Z,11.70
2018-08-12T05:17:03.196Z,11.70
2018-08-12T05:19:31.408Z,11.80
2018-08-12T05:21:59.624Z,11.90
2018-08-12T05:24:27.881Z,11.90
2018-08-12T05:26:56.251Z,12.00
2018-08-12T05:29:24.508Z,12.10
2018-08-12T05:31:52.733Z,12.20
2018-08-12T05:34:20.953Z,12.20
2018-08-12T05:36:49.271Z,12.40
2018-08-12T05:39:17.515Z,12.50
2018-08-12T05:41:45.710Z,12.60
2018-08-12T05:44:14.012Z,12.70
2018-08-12T05:46:42.283Z,12.80
2018-08-12T05:49:10.547Z,12.90
2018-08-12T05:51:38.936Z,13.10
2018-08-12T05:54:07.444Z,13.20
2018-08-12T05:56:35.667Z,13.30
2018-08-12T05:59:04.019Z,13.50
2018-08-12T06:01:32.385Z,13.70
2018-08-12T06:04:00.610Z,13.80
2018-08-12T06:06:28.914Z,14.00
2018-08-12T06:08:57.229Z,14.10
2018-08-12T06:11:25.506Z,14.30
2018-08-12T06:13:53.703Z,14.50
2018-08-12T06:16:21.981Z,14.60
2018-08-12T06:18:50.168Z,14.80
2018-08-12T06:21:18.521Z,14.80
2018-08-12T06:23:46.767Z,14.90
2018-08-12T06:26:15.018Z,15.20
2018-08-12T06:28:43.301Z,15.20
2018-08-12T06:31:11.540Z,15.40
2018-08-12T06:33:39.759Z,15.70
2018-08-12T06:36:08.073Z,15.90
2018-08-12T06:38:36.279Z,16.10
2018-08-12T06:41:04.483Z,16.40
2018-08-12T06:43:32.852Z,16.50
2018-08-12T06:46:01.080Z,16.70
2018-08-12T06:48:29.895Z,16.90
2018-08-12T06:50:58.142Z,17.10
2018-08-12T06:53:26.364Z,17.20
2018-08-12T06:55:54.575Z,17.40
2018-08-12T06:58:22.877Z,17.40
2018-08-12T07:00:51.131Z,17.70
2018-08-12T07:03:19.449Z,17.90
2018-08-12T07:05:47.664Z,18.20
2018-08-12T07:08:15.898Z,18.50
2018-08-12T07:10:44.088Z,18.80
2018-08-12T07:13:12.351Z,19.00
2018-08-12T07:15:40.739Z,19.10
2018-08-12T07:18:09.024Z,19.30
2018-08-12T07:20:37.385Z,19.50
2018-08-12T07:23:05.644Z,19.80
2018-08-12T07:25:33.835Z,20.00
2018-08-12T07:28:02.071Z,20.00
2018-08-12T07:30:30.379Z,20.10
2018-08-12T07:32:58.620Z,20.30
2018-08-12T07:35:26.856Z,20.50
2018-08-12T07:37:56.251Z,20.70
2018-08-12T07:40:24.551Z,20.90
2018-08-12T07:42:53.612Z,21.10
2018-08-12T07:45:21.831Z,21.20
2018-08-12T07:47:50.064Z,21.40
2018-08-12T07:50:18.335Z,21.40
2018-08-12T07:52:46.547Z,21.40
2018-08-12T07:55:15.336Z,21.40
2018-08-12T07:57:44.385Z,21.50
2018-08-12T08:00:15.162Z,21.50
2018-08-12T08:02:43.445Z,21.50
2018-08-12T08:05:11.728Z,21.70
2018-08-12T08:07:40.090Z,21.80
2018-08-12T08:10:11.141Z,22.00
2018-08-12T08:12:39.864Z,22.20
2018-08-12T08:15:12.255Z,22.20
2018-08-12T08:17:41.167Z,22.30
2018-08-12T08:20:10.817Z,22.40
2018-08-12T08:22:39.076Z,22.40
2018-08-12T08:25:08.176Z,22.30
2018-08-12T08:27:36.543Z,22.30
2018-08-12T08:30:06.632Z,22.20
2018-08-12T08:32:34.872Z,22.50
2018-08-12T08:35:03.069Z,22.70
2018-08-12T08:37:31.580Z,23.00
2018-08-12T08:39:59.763Z,23.10
2018-08-12T08:42:28.172Z,23.30
2018-08-12T08:44:56.423Z,23.40
2018-08-12T08:47:24.940Z,23.50
2018-08-12T08:49:53.174Z,23.50
2018-08-12T08:52:21.372Z,23.50
2018-08-12T08:54:49.820Z,23.80
2018-08-12T08:57:17.996Z,23.80
2018-08-12T08:59:46.320Z,23.70
2018-08-12T09:02:14.536Z,23.70
2018-08-12T09:04:42.737Z,23.90
2018-08-12T09:07:11.020Z,23.90
2018-08-12T09:09:39.277Z,24.00
2018-08-12T09:12:07.517Z,23.80
2018-08-12T09:14:35.759Z,23.70
2018-08-12T09:17:03.986Z,23.90
2018-08-12T09:19:32.211Z,23.90
2018-08-12T09:22:00.422Z,23.90
2018-08-12T09:24:28.657Z,23.80
2018-08-12T09:26:56.870Z,24.10
2018-08-12T09:29:25.137Z,24.50
2018-08-12T09:31:53.567Z,24.50
2018-08-12T09:34:21.898Z,24.50
2018-08-12T09:36:50.253Z,24.70
2018-08-12T09:39:18.764Z,24.90
2018-08-12T09:41:47.218Z,24.90
2018-08-12T09:44:15.858Z,24.90
2018-08-12T09:46:44.388Z,24.90
2018-08-12T09:49:12.912Z,25.00
2018-08-12T09:51:41.671Z,25.00
2018-08-12T09:54:09.823Z,25.30
2018-08-12T09:56:38.084Z,25.30
2018-08-12T09:59:06.360Z,25.40
2018-08-12T10:01:34.581Z,25.40
2018-08-12T10:04:02.927Z,25.40
2018-08-12T10:06:31.316Z,25.40
2018-08-12T10:09:00.395Z,25.20
2018-08-12T10:11:28.889Z,25.30
2018-08-12T10:13:57.466Z,25.30
2018-08-12T10:16:25.785Z,25.30
2018-08-12T10:18:54.014Z,25.50
2018-08-12T10:21:22.226Z,25.50
2018-08-12T10:23:50.561Z,25.60
2018-08-12T10:26:18.759Z,25.70
2018-08-12T10:28:47.073Z,25.70
2018-08-12T10:31:15.391Z,25.50
2018-08-12T10:33:43.623Z,25.30
2018-08-12T10:36:11.865Z,25.20
2018-08-12T10:38:40.157Z,25.50
2018-08-12T10:41:08.396Z,25.60
2018-08-12T10:43:36.637Z,25.70
2018-08-12T10:46:04.881Z,25.80
2018-08-12T10:48:33.131Z,25.80
2018-08-12T10:51:01.336Z,25.80
2018-08-12T10:53:29.580Z,25.70
2018-08-12T10:55:57.852Z,25.70
2018-08-12T10:58:26.090Z,25.90
2018-08-12T11:00:54.446Z,26.00
2018-08-12T11:03:22.640Z,26.10
2018-08-12T11:05:51.351Z,26.30
2018-08-12T11:08:20.424Z,26.50
2018-08-12T11:10:48.700Z,26.60
2018-08-12T11:13:16.936Z,26.50
2018-08-12T11:15:45.157Z,26.40
2018-08-12T11:18:13.682Z,26.40
2018-08-12T11:20:41.948Z,26.50
2018-08-12T11:23:10.232Z,26.70
2018-08-12T11:25:38.676Z,26.70
2018-08-12T11:28:06.889Z,26.70
2018-08-12T11:30:35.106Z,26.60
2018-08-12T11:33:03.373Z,26.80
2018-08-12T11:35:31.611Z,27.00
2018-08-12T11:37:59.873Z,26.90
2018-08-12T11:40:28.504Z,26.90
2018-08-12T11:42:56.716Z,26.90
2018-08-12T11:45:25.005Z,27.00
2018-08-12T11:47:53.369Z,26.80
2018-08-12T11:50:21.588Z,27.00
2018-08-12T11:52:49.884Z,26.90
2018-08-12T11:55:19.251Z,27.10
2018-08-12T11:57:47.478Z,27.20
2018-08-12T12:00:17.540Z,27.10
2018-08-12T12:02:47.548Z,27.10
2018-08-12T12:05:15.900Z,27.10
2018-08-12T12:07:44.337Z,26.90
2018-08-12T12:10:16.611Z,26.90
2018-08-12T12:12:46.075Z,27.10
2018-08-12T12:15:14.970Z,27.00
2018-08-12T12:17:43.646Z,27.20
2018-08-12T12:20:12.864Z,27.10
2018-08-12T12:22:42.008Z,27.40
2018-08-12T12:25:11.757Z,27.60
2018-08-12T12:27:40.099Z,27.70
2018-08-12T12:30:11.629Z,27.80
2018-08-12T12:32:39.904Z,27.70
2018-08-12T12:35:08.183Z,27.60
2018-08-12T12:37:36.443Z,27.50
2018-08-12T12:40:05.653Z,27.30
2018-08-12T12:42:33.874Z,27.30
2018-08-12T12:45:02.179Z,27.40
2018-08-12T12:47:30.452Z,27.50
2018-08-12T12:49:58.684Z,27.50
2018-08-12T12:52:26.886Z,27.50
2018-08-12T12:54:55.081Z,27.50
2018-08-12T12:57:23.839Z,27.60
2018-08-12T12:59:52.186Z,27.60
2018-08-12T13:02:20.316Z,27.90
2018-08-12T13:04:48.651Z,27.90
2018-08-12T13:07:16.895Z,28.10
2018-08-12T13:09:45.108Z,28.00
2018-08-12T13:12:13.421Z,27.90
2018-08-12T13:14:41.649Z,27.90
2018-08-12T13:17:09.976Z,28.00
2018-08-12T13:19:38.271Z,28.00
2018-08-12T13:22:07.068Z,27.70
2018-08-12T13:24:35.369Z,27.60
2018-08-12T13:27:03.702Z,27.70
2018-08-12T13:29:31.975Z,27.80
2018-08-12T13:32:00.228Z,27.80
2018-08-12T13:34:28.633Z,27.80
2018-08-12T13:36:56.986Z,27.90
2018-08-12T13:39:25.276Z,27.80
2018-08-12T13:41:53.500Z,27.80
2018-08-12T13:44:21.732Z,27.90
2018-08-12T13:46:49.923Z,27.80
2018-08-12T13:49:18.220Z,27.80
2018-08-12T13:51:46.544Z,27.90
2018-08-12T13:54:14.765Z,28.00
2018-08-12T13:56:43.035Z,28.20
2018-08-12T13:59:11.268Z,28.30
2018-08-12T14:01:39.536Z,28.30
2018-08-12T14:04:07.739Z,28.40
2018-08-12T14:06:35.963Z,28.60
2018-08-12T14:09:05.935Z,28.60
2018-08-12T14:11:34.194Z,28.50
2018-08-12T14:14:02.413Z,28.30
2018-08-12T14:16:30.648Z,28.30
2018-08-12T14:18:58.983Z,28.30
2018-08-12T14:21:27.248Z,28.20
2018-08-12T14:23:55.583Z,28.00
2018-08-12T14:26:23.851Z,28.10
2018-08-12T14:28:52.052Z,28.30
2018-08-12T14:31:20.648Z,28.30
2018-08-12T14:33:48.884Z,28.40
2018-08-12T14:36:17.079Z,28.50
2018-08-12T14:38:45.334Z,28.40
2018-08-12T14:41:13.547Z,28.40
2018-08-12T14:43:41.783Z,28.40
2018-08-12T14:46:10.333Z,28.20
2018-08-12T14:48:38.771Z,28.00
2018-08-12T14:51:07.006Z,28.00
2018-08-12T14:53:35.176Z,27.90
2018-08-12T14:56:03.889Z,28.00
2018-08-12T14:58:32.213Z,28.10
2018-08-12T15:01:00.457Z,28.40
2018-08-12T15:03:28.761Z,28.20
2018-08-12T15:05:57.195Z,28.20
2018-08-12T15:08:25.854Z,28.40
2018-08-12T15:10:54.640Z,28.50
2018-08-12T15:13:22.900Z,28.50
2018-08-12T15:15:51.316Z,28.60
2018-08-12T15:18:19.508Z,28.50
2018-08-12T15:20:47.750Z,28.50
2018-08-12T15:23:16.055Z,28.50
2018-08-12T15:25:44.372Z,28.60
2018-08-12T15:28:13.583Z,28.60
2018-08-12T15:30:41.758Z,28.50
2018-08-12T15:33:10.147Z,28.30
2018-08-12T15:35:38.751Z,28.30
2018-08-12T15:38:07.288Z,28.30
2018-08-12T15:40:35.636Z,28.20
2018-08-12T15:43:03.827Z,28.20
2018-08-12T15:45:32.176Z,28.20
2018-08-12T15:48:00.382Z,28.20
2018-08-12T15:50:28.755Z,28.20
2018-08-12T15:52:57.051Z,28.10
2018-08-12T15:55:25.231Z,28.30
2018-08-12T15:57:54.308Z,28.20
2018-08-12T16:00:23.152Z,28.10
2018-08-12T16:02:51.716Z,28.20
2018-08-12T16:05:20.176Z,28.10
2018-08-12T16:07:48.968Z,28.20
2018-08-12T16:10:19.568Z,28.20
2018-08-12T16:12:49.167Z,28.30
2018-08-12T16:15:17.519Z,28.10
2018-08-12T16:17:45.876Z,28.20
2018-08-12T16:20:14.323Z,28.20
2018-08-12T16:22:42.804Z,28.00
2018-08-12T16:25:13.675Z,28.10
2018-08-12T16:27:42.476Z,28.00
2018-08-12T16:30:11.679Z,28.00
2018-08-12T16:32:40.011Z,27.90
2018-08-12T16:35:09.552Z,27.90
2018-08-12T16:37:37.818Z,27.90
2018-08-12T16:40:07.853Z,28.00
2018-08-12T16:42:36.319Z,27.90
2018-08-12T16:45:05.451Z,28.00
2018-08-12T16:47:33.652Z,28.00
2018-08-12T16:50:01.880Z,28.00
2018-08-12T16:52:30.269Z,28.00
2018-08-12T16:54:58.569Z,28.00
2018-08-12T16:57:26.908Z,27.90
2018-08-12T16:59:55.110Z,27.90
2018-08-12T17:02:23.637Z,27.90
2018-08-12T17:04:52.062Z,27.90
2018-08-12T17:07:20.305Z,27.90
2018-08-12T17:09:48.524Z,27.70
2018-08-12T17:12:16.759Z,27.70
2018-08-12T17:14:44.931Z,27.70
2018-08-12T17:17:13.240Z,27.70
2018-08-12T17:19:41.424Z,27.70
2018-08-12T17:22:09.743Z,27.60
2018-08-12T17:24:37.951Z,27.70
2018-08-12T17:27:06.209Z,27.60
2018-08-12T17:29:34.415Z,27.50
2018-08-12T17:32:02.681Z,27.50
2018-08-12T17:34:30.875Z,27.50
2018-08-12T17:36:59.113Z,27.50
2018-08-12T17:39:27.312Z,27.50
2018-08-12T17:41:55.538Z,27.50
2018-08-12T17:44:23.813Z,27.40
2018-08-12T17:46:52.146Z,27.30
2018-08-12T17:49:20.384Z,27.30
2018-08-12T17:51:48.607Z,27.20
2018-08-12T17:54:16.923Z,27.20
2018-08-12T17:56:45.032Z,27.10
2018-08-12T17:59:13.245Z,27.10
2018-08-12T18:01:41.651Z,27.00
2018-08-12T18:04:09.854Z,26.90
2018-08-12T18:06:38.105Z,26.80
2018-08-12T18:09:07.391Z,26.80
2018-08-12T18:11:35.611Z,26.70
2018-08-12T18:14:03.993Z,26.60
2018-08-12T18:16:32.312Z,26.60
2018-08-12T18:19:00.543Z,26.50
2018-08-12T18:21:28.821Z,26.40
2018-08-12T18:23:57.100Z,26.30
2018-08-12T18:26:25.387Z,26.30
2018-08-12T18:28:53.577Z,26.20
2018-08-12T18:31:22.090Z,26.20
2018-08-12T18:33:50.288Z,26.10
2018-08-12T18:36:18.464Z,26.10
2018-08-12T18:38:46.699Z,26.00
2018-08-12T18:41:14.915Z,25.90
2018-08-12T18:43:43.088Z,25.90
2018-08-12T18:46:11.289Z,25.70
2018-08-12T18:48:39.491Z,25.70
2018-08-12T18:51:07.652Z,25.50
2018-08-12T18:53:35.979Z,25.40
2018-08-12T18:56:04.197Z,25.40
2018-08-12T18:58:32.380Z,25.30
2018-08-12T19:01:00.586Z,25.20
2018-08-12T19:03:28.918Z,25.00
2018-08-12T19:05:57.075Z,24.80
2018-08-12T19:08:25.251Z,24.70
2018-08-12T19:10:53.483Z,24.50
2018-08-12T19:13:21.645Z,24.30
2018-08-12T19:15:49.856Z,24.00
2018-08-12T19:18:18.059Z,23.80
2018-08-12T19:20:46.268Z,23.60
2018-08-12T19:23:14.461Z,23.40
2018-08-12T19:25:42.657Z,23.20
2018-08-12T19:28:11.408Z,23.10
2018-08-12T19:30:39.586Z,23.00
2018-08-12T19:33:08.670Z,22.80
2018-08-12T19:35:36.871Z,22.70
2018-08-12T19:38:05.106Z,22.60
2018-08-12T19:40:33.340Z,22.40
2018-08-12T19:43:01.526Z,22.30
2018-08-12T19:45:29.877Z,22.20
2018-08-12T19:47:58.060Z,22.10
2018-08-12T19:50:26.528Z,22.00
2018-08-12T19:52:54.730Z,21.90
2018-08-12T19:55:22.896Z,21.70
2018-08-12T19:57:51.103Z,21.60
2018-08-12T20:00:19.453Z,21.50
2018-08-12T20:02:47.660Z,21.40
2018-08-12T20:05:15.868Z,21.20
2018-08-12T20:07:44.191Z,21.10
2018-08-12T20:10:12.650Z,21.10
2018-08-12T20:12:40.892Z,21.00
2018-08-12T20:15:10.665Z,20.90
2018-08-12T20:17:39.208Z,20.90
2018-08-12T20:20:09.411Z,20.70
2018-08-12T20:22:37.704Z,20.60
2018-08-12T20:25:06.704Z,20.50
2018-08-12T20:27:35.012Z,20.40
2018-08-12T20:30:03.251Z,20.40
2018-08-12T20:32:31.440Z,20.30
2018-08-12T20:34:59.716Z,20.20
2018-08-12T20:37:27.891Z,20.20
2018-08-12T20:39:56.080Z,20.10
2018-08-12T20:42:24.672Z,20.00
2018-08-12T20:44:52.916Z,19.90
2018-08-12T20:47:21.176Z,19.80
2018-08-12T20:49:49.397Z,19.80
2018-08-12T20:52:17.789Z,19.70
2018-08-12T20:54:46.005Z,19.60
2018-08-12T20:57:14.345Z,19.60
2018-08-12T20:59:42.559Z,19.50
2018-08-12T21:02:10.808Z,19.50
2018-08-12T21:04:39.139Z,19.40
2018-08-12T21:07:07.351Z,19.40
2018-08-12T21:09:35.583Z,19.30
2018-08-12T21:12:03.961Z,19.30
2018-08-12T21:14:32.033Z,19.20
2018-08-12T21:17:00.279Z,19.10
2018-08-12T21:19:29.015Z,19.00
2018-08-12T21:21:57.266Z,19.00
2018-08-12T21:24:25.816Z,19.00
2018-08-12T21:26:54.022Z,18.90
2018-08-12T21:29:22.230Z,18.90
2018-08-12T21:31:50.475Z,18.80
2018-08-12T21:34:18.745Z,18.80
2018-08-12T21:36:47.003Z,18.70
2018-08-12T21:39:15.191Z,18.70
2018-08-12T21:41:43.395Z,18.60
2018-08-12T21:44:11.597Z,18.60
2018-08-12T21:46:39.832Z,18.60
2018-08-12T21:49:08.020Z,18.50
2018-08-12T21:51:36.356Z,18.40
2018-08-12T21:54:04.595Z,18.40
2018-08-12T21:56:32.812Z,18.30
2018-08-12T21:59:01.101Z,18.30
2018-08-12T22:01:29.336Z,18.30
2018-08-12T22:03:57.536Z,18.20
2018-08-12T22:06:25.707Z,18.20
2018-08-12T22:08:53.939Z,18.10
2018-08-12T22:11:22.188Z,18.10
2018-08-12T22:13:50.415Z,18.10
2018-08-12T22:16:18.648Z,18.00
2018-08-12T22:18:46.896Z,18.00
2018-08-12T22:21:15.146Z,17.90
2018-08-12T22:23:43.568Z,17.90
2018-08-12T22:26:11.767Z,17.80
2018-08-12T22:28:39.970Z,17.70
2018-08-12T22:31:08.215Z,17.70
2018-08-12T22:33:36.441Z,17.70
2018-08-12T22:36:04.670Z,17.60
2018-08-12T22:38:33.044Z,17.60
2018-08-12T22:41:01.248Z,17.60
2018-08-12T22:43:29.460Z,17.50
2018-08-12T22:45:57.720Z,17.50
2018-08-12T22:48:25.914Z,17.50
2018-08-12T22:50:54.140Z,17.40
2018-08-12T22:53:22.400Z,17.40
2018-08-12T22:55:50.632Z,17.40
2018-08-12T22:58:18.835Z,17.30
2018-08-12T23:00:47.768Z,17.20
2018-08-12T23:03:15.986Z,17.20
2018-08-12T23:05:44.249Z,17.20
2018-08-12T23:08:12.587Z,17.10
2018-08-12T23:10:41.292Z,17.10
2018-08-12T23:13:09.527Z,17.00
2018-08-12T23:16:16.491Z,17.00
2018-08-12T23:18:44.755Z,16.90
2018-08-12T23:21:15.044Z,16.90
2018-08-12T23:23:44.429Z,16.90
2018-08-12T23:26:14.702Z,16.80
2018-08-12T23:28:43.144Z,16.80
2018-08-12T23:31:11.387Z,16.80
2018-08-12T23:33:39.603Z,16.80
2018-08-12T23:36:07.960Z,16.80
2018-08-12T23:38:36.679Z,16.70
2018-08-12T23:41:05.161Z,16.70
2018-08-12T23:43:33.364Z,16.70
2018-08-12T23:46:01.563Z,16.70
2018-08-12T23:48:30.502Z,16.60
2018-08-12T23:50:58.868Z,16.60
2018-08-12T23:53:27.116Z,16.50
2018-08-12T23:55:55.303Z,16.50
2018-08-12T23:58:23.639Z,16.40
